Vaaraa aiheuttavia sääilmiöitä ei ole odotettavissa.    Ei varoituksia

Webkamera Lisätietoa Webcam


Yksityisiä sääasemia lähellä:

Sääasema Juupajoki

Sääasema Orivesi

Sääasema Muurame

Sääasema Jyväskylä

Sääasema Vihtavuori


Löydät sääaseman tiedot myös:

Finland Weather Exchange

European Weather Network

Weather Underground

AWEKAS

Windy.com



Säätiedot lähimmiltä METAR asemilta

   
EFHA - Halli (Fin-Afb), Finland
Etäisyys asemalta: Kaakko 25 km
Päivitetty: 31.07.2021 02:20
Sumupilvilauttoja, Sumua, Melkein pilvistä  
Sumupilvilauttoja, Sumua, Melkein pilvistä  
   Tuuli: Pohjoisluode 1 m/s
Tuuli: Pohjoisluode 1 m/s
Lämpötila: 13°C
Kastepiste: 13°C
Kosteus: 100%
Ilmanpaine: 991 hPa
Pilvisyys: Melkein pilvistä
Näkyvyys: 1 km
Pilvitiedot: Melkein pilvistä 61 m
EFHA 302320Z AUTO 34002KT 0600 R26/2000N BCFG BKN002 13/13 Q0991
EFJY - Jyvaskyla (Mil/Civ), Finland
Etäisyys asemalta: Koillinen 75 km
Päivitetty: 31.07.2021 02:20
Sumupilvilauttoja, Sumua, Melkein pilvistä  
Sumupilvilauttoja, Sumua, Melkein pilvistä  
   Tuuli: Luode 1 m/s
Tuuli: Luode 1 m/s
Lämpötila: 12°C
Kastepiste: 12°C
Kosteus: 100%
Ilmanpaine: 991 hPa
Pilvisyys: Melkein pilvistä
Näkyvyys: 2 km
Pilvitiedot: Vähäistä pilvisyyttä 518 m,
Melkein pilvistä 1097 m
EFJY 302320Z AUTO 32002KT 1700 R30/1400U BCFG FEW017 BKN036 12/12 Q0991
EFTP - Tampere/Pirkkala, Finland
Etäisyys asemalta: Lounas 81 km
Päivitetty: 31.07.2021 02:20
Vähäistä pilvisyyttä  
Vähäistä pilvisyyttä  
   Tuuli: Luode 1.5 m/s
Tuuli: Luode 1.5 m/s
Lämpötila: 13°C
Kastepiste: 13°C
Kosteus: 100%
Ilmanpaine: 992 hPa
Pilvisyys: Vähäistä pilvisyyttä
Näkyvyys: Enemmän kuin 10 km
Pilvitiedot: Vähäistä pilvisyyttä 884 m
EFTP 302320Z AUTO 32003KT 290V350 9999 FEW029 13/13 Q0992
EFSI - Seinajoki-Ilmajoki, Finland
Etäisyys asemalta: Luode 114 km
Päivitetty: 31.07.2021 02:20
Sumupilvilauttoja, Sumua, Selkeää  
Sumupilvilauttoja, Sumua, Selkeää  
   Tuuli: Tyyntä
Tuuli: Tyyntä
Lämpötila: 11°C
Kastepiste: 11°C
Kosteus: 100%
Ilmanpaine: 992 hPa
Pilvisyys: Selkeää
Näkyvyys: 5 km
Pilvitiedot: Selkeää
EFSI 302320Z AUTO 00000KT 5000 BCFG SKC 11/11 Q0992
EFMI - Mikkeli, Finland
Etäisyys asemalta: Itäkaakko 147 km
Päivitetty: 31.07.2021 02:20
Melkein pilvistä  
Melkein pilvistä  
   Tuuli: Kaakko 2.1 m/s
Tuuli: Kaakko 2.1 m/s
Lämpötila: 14°C
Kastepiste: 14°C
Kosteus: 100%
Ilmanpaine: 992 hPa
Pilvisyys: Melkein pilvistä
Näkyvyys: Enemmän kuin 10 km
Pilvitiedot: Melkein pilvistä 152 m
EFMI 302320Z AUTO 13004KT 9999 BKN005 14/14 Q0992
EFPO - Pori (Mil/Civ), Finland
Etäisyys asemalta: Länsilounas 154 km
Päivitetty: 31.07.2021 02:20
Selkeää  
Selkeää  
   Tuuli: Länsiluode 1.5 m/s
Tuuli: Länsiluode 1.5 m/s
Lämpötila: 13°C
Kastepiste: 13°C
Kosteus: 100%
Ilmanpaine: 993 hPa
Näkyvyys: Enemmän kuin 10 km
Pilvitiedot: Selkeää
EFPO 302320Z AUTO 30003KT CAVOK 13/13 Q0993
EFUT - Utti (Fin-Afb), Finland
Etäisyys asemalta: Kaakko 180 km
Päivitetty: 31.07.2021 02:20
Heikkoja sadekuuroja, Sade, Vähäistä pilvisyyttä  
Heikkoja sadekuuroja, Sade, Vähäistä pilvisyyttä  
   Tuuli: Kaakko 1.5 m/s
Tuuli: Kaakko 1.5 m/s
Lämpötila: 14°C
Kastepiste: 14°C
Kosteus: 100%
Ilmanpaine: 991 hPa
Pilvisyys: Vähäistä pilvisyyttä
Näkyvyys: Enemmän kuin 10 km
Pilvitiedot: Vähäistä pilvisyyttä 427 m,
Ukkosta
EFUT 302320Z AUTO 13003KT 9999 -SHRA FEW014 //////CB 14/14 Q0991
EFVA - Vaasa, Finland
Etäisyys asemalta: Luode 180 km
Päivitetty: 31.07.2021 02:20
Sumua, Pilvistä  
Sumua, Pilvistä  
   Tuuli: Vaihtelee 0.5 m/s
Tuuli: Vaihtelee 0.5 m/s
Lämpötila: 12°C
Kastepiste: 12°C
Kosteus: 100%
Ilmanpaine: 992 hPa
Pilvisyys: Pilvistä
Näkyvyys: 1 km
Pilvitiedot: Pilvistä 31 m
EFVA 302320Z AUTO VRB01KT 0550 R16/1000 FG VV001 12/12 Q0992
EFHK - Helsinki/Vantaa, Finland
Etäisyys asemalta: Etelä 191 km
Päivitetty: 31.07.2021 02:20
Puolipilvistä  
Puolipilvistä  
   Tuuli: Länsi 2.1 m/s
Tuuli: Länsi 2.1 m/s
Lämpötila: 14°C
Kastepiste: 14°C
Kosteus: 100%
Ilmanpaine: 991 hPa
Pilvisyys: Puolipilvistä
Näkyvyys: Enemmän kuin 10 km
Pilvitiedot: Puolipilvistä 183 m
EFHK 302320Z 26004KT 9999 SCT006 14/14 Q0991 BECMG BKN005

Alkuperäinen skripti  Saratoga-weather.org Sovitettu myös templatelle  Weerstation Leuven

Laitteet joita käytämme:

Sääasema
Davis VP2

Sääasemaohjelma
Cumulus

Sääaseman palvelin
HP ProBook 6460b

Palveluntarjoaja
Radicenter

Davis VP2

Cumulus

HP ProBook 6460b

Radicenter




Flag Counter Cumulus Top Weather Sites